createdAt,value
2019-03-01T00:01:09.425Z,7.90
2019-03-01T00:03:38.245Z,7.90
2019-03-01T00:06:21.761Z,7.80
2019-03-01T00:08:56.232Z,7.90
2019-03-01T00:11:30.665Z,7.80
2019-03-01T00:14:14.009Z,7.80
2019-03-01T00:17:01.931Z,7.90
2019-03-01T00:19:45.642Z,7.80
2019-03-01T00:22:38.360Z,7.80
2019-03-01T00:25:29.436Z,7.70
2019-03-01T00:28:15.798Z,7.70
2019-03-01T00:31:00.669Z,7.70
2019-03-01T00:33:38.351Z,7.70
2019-03-01T00:36:38.797Z,7.60
2019-03-01T00:39:12.800Z,7.60
2019-03-01T00:42:03.641Z,7.60
2019-03-01T00:44:31.065Z,7.60
2019-03-01T00:47:00.594Z,7.50
2019-03-01T00:49:30.675Z,7.50
2019-03-01T00:51:59.085Z,7.50
2019-03-01T00:54:27.530Z,7.40
2019-03-01T00:56:55.977Z,7.50
2019-03-01T00:59:24.414Z,7.40
2019-03-01T01:01:53.699Z,7.40
2019-03-01T01:04:22.133Z,7.40
2019-03-01T01:06:50.725Z,7.30
2019-03-01T01:09:19.196Z,7.30
2019-03-01T01:11:47.709Z,7.30
2019-03-01T01:14:16.167Z,7.30
2019-03-01T01:16:44.628Z,7.20
2019-03-01T01:19:13.069Z,7.30
2019-03-01T01:21:41.489Z,7.20
2019-03-01T01:24:09.959Z,7.20
2019-03-01T01:26:38.398Z,7.20
2019-03-01T01:29:06.854Z,7.20
2019-03-01T01:31:35.247Z,7.20
2019-03-01T01:34:03.688Z,7.20
2019-03-01T01:36:32.134Z,7.20
2019-03-01T01:39:00.581Z,7.30
2019-03-01T01:41:28.989Z,7.20
2019-03-01T01:43:57.412Z,7.20
2019-03-01T01:46:25.958Z,7.20
2019-03-01T01:48:54.354Z,7.20
2019-03-01T01:51:22.767Z,7.10
2019-03-01T01:53:51.188Z,7.20
2019-03-01T01:56:19.592Z,7.10
2019-03-01T01:58:48.052Z,7.20
2019-03-01T02:01:16.457Z,7.10
2019-03-01T02:03:44.872Z,7.10
2019-03-01T02:06:13.335Z,7.00
2019-03-01T02:08:41.795Z,6.90
2019-03-01T02:11:10.218Z,6.70
2019-03-01T02:13:38.653Z,6.50
2019-03-01T02:16:07.109Z,6.40
2019-03-01T02:18:35.504Z,6.30
2019-03-01T02:21:04.016Z,6.20
2019-03-01T02:23:32.424Z,6.20
2019-03-01T02:26:00.836Z,6.10
2019-03-01T02:28:29.271Z,6.10
2019-03-01T02:31:01.015Z,6.10
2019-03-01T02:33:29.445Z,6.10
2019-03-01T02:35:57.905Z,6.10
2019-03-01T02:38:26.307Z,6.10
2019-03-01T02:40:54.759Z,6.10
2019-03-01T02:43:23.196Z,6.10
2019-03-01T02:45:51.668Z,6.10
2019-03-01T02:48:20.108Z,6.10
2019-03-01T02:50:48.520Z,6.10
2019-03-01T02:53:16.970Z,6.10
2019-03-01T02:55:45.393Z,6.10
2019-03-01T02:58:13.829Z,6.10
2019-03-01T03:00:42.285Z,6.10
2019-03-01T03:03:10.770Z,6.10
2019-03-01T03:05:40.969Z,6.00
2019-03-01T03:08:10.613Z,6.00
2019-03-01T03:10:39.037Z,5.90
2019-03-01T03:13:07.975Z,5.90
2019-03-01T03:15:38.053Z,5.90
2019-03-01T03:18:06.537Z,5.90
2019-03-01T03:20:35.001Z,5.90
2019-03-01T03:23:03.411Z,5.90
2019-03-01T03:25:31.867Z,5.90
2019-03-01T03:28:00.317Z,5.90
2019-03-01T03:30:28.850Z,5.90
2019-03-01T03:32:57.257Z,5.90
2019-03-01T03:35:25.771Z,5.90
2019-03-01T03:37:54.214Z,5.90
2019-03-01T03:40:22.638Z,6.00
2019-03-01T03:42:51.066Z,6.00
2019-03-01T03:45:19.559Z,6.00
2019-03-01T03:47:48.034Z,6.10
2019-03-01T03:50:16.764Z,6.10
2019-03-01T03:52:45.225Z,6.10
2019-03-01T03:55:18.143Z,6.10
2019-03-01T03:57:46.777Z,6.10
2019-03-01T04:00:23.879Z,6.10
2019-03-01T04:02:52.371Z,6.10
2019-03-01T04:05:20.809Z,6.20
2019-03-01T04:07:49.255Z,6.20
2019-03-01T04:10:17.739Z,6.10
2019-03-01T04:12:46.188Z,6.20
2019-03-01T04:15:15.762Z,6.20
2019-03-01T04:17:44.250Z,6.20
2019-03-01T04:20:17.003Z,6.20
2019-03-01T04:22:45.507Z,6.20
2019-03-01T04:25:13.925Z,6.20
2019-03-01T04:27:42.431Z,6.20
2019-03-01T04:30:13.917Z,6.20
2019-03-01T04:32:42.324Z,6.20
2019-03-01T04:35:10.775Z,6.20
2019-03-01T04:37:39.276Z,6.20
2019-03-01T04:40:10.335Z,6.20
2019-03-01T04:42:38.794Z,6.30
2019-03-01T04:45:12.716Z,6.30
2019-03-01T04:47:41.230Z,6.30
2019-03-01T04:50:11.785Z,6.30
2019-03-01T04:52:40.717Z,6.30
2019-03-01T04:55:20.530Z,6.20
2019-03-01T04:57:48.992Z,6.30
2019-03-01T05:00:29.573Z,6.30
2019-03-01T05:02:57.999Z,6.30
2019-03-01T05:05:26.458Z,6.30
2019-03-01T05:07:54.988Z,6.30
2019-03-01T05:10:23.388Z,6.30
2019-03-01T05:12:51.891Z,6.30
2019-03-01T05:15:24.275Z,6.30
2019-03-01T05:17:52.672Z,6.30
2019-03-01T05:20:21.102Z,6.30
2019-03-01T05:22:49.519Z,6.30
2019-03-01T05:25:17.928Z,6.30
2019-03-01T05:27:46.358Z,6.30
2019-03-01T05:30:17.024Z,6.30
2019-03-01T05:32:45.423Z,6.30
2019-03-01T05:35:14.224Z,6.30
2019-03-01T05:37:42.648Z,6.30
2019-03-01T05:40:15.348Z,6.30
2019-03-01T05:42:43.857Z,6.20
2019-03-01T05:45:21.316Z,6.20
2019-03-01T05:47:49.740Z,6.30
2019-03-01T05:50:18.212Z,6.20
2019-03-01T05:52:46.673Z,6.30
2019-03-01T05:55:15.282Z,6.20
2019-03-01T05:58:21.518Z,6.20
2019-03-01T06:00:51.248Z,6.20
2019-03-01T06:03:43.635Z,6.20
2019-03-01T06:06:27.327Z,6.20
2019-03-01T06:09:12.564Z,6.20
2019-03-01T06:11:52.900Z,6.20
2019-03-01T06:14:27.255Z,6.20
2019-03-01T06:17:10.727Z,6.20
2019-03-01T06:19:50.852Z,6.20
2019-03-01T06:22:40.379Z,6.20
2019-03-01T06:25:28.267Z,6.20
2019-03-01T06:28:17.823Z,6.30
2019-03-01T06:31:01.352Z,6.20
2019-03-01T06:33:50.887Z,6.20
2019-03-01T06:36:25.279Z,6.20
2019-03-01T06:39:17.861Z,6.20
2019-03-01T06:41:49.663Z,6.20
2019-03-01T06:44:48.542Z,6.30
2019-03-01T06:47:22.526Z,6.30
2019-03-01T06:49:58.408Z,6.30
2019-03-01T06:52:26.937Z,6.30
2019-03-01T06:54:55.428Z,6.30
2019-03-01T06:57:23.957Z,6.30
2019-03-01T06:59:52.391Z,6.30
2019-03-01T07:02:31.864Z,6.30
2019-03-01T07:05:00.298Z,6.30
2019-03-01T07:07:28.777Z,6.30
2019-03-01T07:09:57.256Z,6.30
2019-03-01T07:12:25.668Z,6.30
2019-03-01T07:14:57.256Z,6.30
2019-03-01T07:17:25.779Z,6.40
2019-03-01T07:19:54.278Z,6.40
2019-03-01T07:22:22.681Z,6.40
2019-03-01T07:24:51.114Z,6.50
2019-03-01T07:27:22.888Z,6.70
2019-03-01T07:29:51.339Z,6.80
2019-03-01T07:32:21.356Z,6.90
2019-03-01T07:34:49.822Z,6.80
2019-03-01T07:37:18.236Z,6.90
2019-03-01T07:39:46.679Z,7.00
2019-03-01T07:42:15.094Z,7.10
2019-03-01T07:44:43.694Z,7.10
2019-03-01T07:47:12.139Z,7.10
2019-03-01T07:49:40.704Z,7.10
2019-03-01T07:52:09.175Z,7.10
2019-03-01T07:54:39.847Z,7.00
2019-03-01T07:57:11.530Z,7.00
2019-03-01T07:59:39.507Z,7.10
2019-03-01T08:02:08.179Z,7.10
2019-03-01T08:04:36.633Z,7.10
2019-03-01T08:07:05.126Z,7.10
2019-03-01T08:09:36.010Z,7.10
2019-03-01T08:12:07.380Z,7.10
2019-03-01T08:14:34.031Z,7.10
2019-03-01T08:17:02.491Z,7.10
2019-03-01T08:19:30.919Z,7.00
2019-03-01T08:21:59.385Z,7.00
2019-03-01T08:24:27.850Z,7.00
2019-03-01T08:26:57.076Z,7.00
2019-03-01T08:29:25.639Z,7.10
2019-03-01T08:31:55.902Z,7.10
2019-03-01T08:34:24.352Z,7.00
2019-03-01T08:36:52.831Z,7.10
2019-03-01T08:39:21.276Z,7.00
2019-03-01T08:41:49.723Z,7.00
2019-03-01T08:44:19.333Z,7.00
2019-03-01T08:46:48.340Z,6.90
2019-03-01T08:49:16.865Z,6.90
2019-03-01T08:51:45.400Z,6.90
2019-03-01T08:54:13.936Z,7.00
2019-03-01T08:56:42.444Z,6.90
2019-03-01T08:59:10.876Z,6.90
2019-03-01T09:01:41.672Z,6.90
2019-03-01T09:04:14.222Z,7.00
2019-03-01T09:06:42.913Z,7.10
2019-03-01T09:09:11.463Z,7.20
2019-03-01T09:11:41.669Z,7.20
2019-03-01T09:14:10.042Z,7.50
2019-03-01T09:16:38.472Z,7.80
2019-03-01T09:19:06.903Z,7.90
2019-03-01T09:21:35.354Z,8.10
2019-03-01T09:24:03.886Z,8.30
2019-03-01T09:26:32.352Z,8.40
2019-03-01T09:29:02.219Z,8.60
2019-03-01T09:31:30.677Z,8.80
2019-03-01T09:33:59.143Z,8.70
2019-03-01T09:36:35.140Z,8.70
2019-03-01T09:39:07.181Z,8.70
2019-03-01T09:41:36.693Z,8.70
2019-03-01T09:44:05.908Z,8.60
2019-03-01T09:46:34.332Z,8.40
2019-03-01T09:49:02.882Z,8.20
2019-03-01T09:51:31.364Z,8.20
2019-03-01T09:53:59.807Z,8.40
2019-03-01T09:56:28.202Z,8.60
2019-03-01T09:58:56.642Z,8.70
2019-03-01T10:01:25.128Z,8.90
2019-03-01T10:03:53.558Z,9.10
2019-03-01T10:06:21.998Z,9.20
2019-03-01T10:08:50.401Z,9.40
2019-03-01T10:11:18.832Z,9.40
2019-03-01T10:13:47.286Z,9.50
2019-03-01T10:16:15.992Z,9.60
2019-03-01T10:18:44.522Z,9.60
2019-03-01T10:21:13.010Z,9.60
2019-03-01T10:23:41.421Z,9.40
2019-03-01T10:26:09.851Z,9.30
2019-03-01T10:28:38.291Z,9.20
2019-03-01T10:31:06.713Z,9.10
2019-03-01T10:33:35.143Z,9.30
2019-03-01T10:36:03.727Z,9.40
2019-03-01T10:38:32.145Z,9.10
2019-03-01T10:41:02.032Z,9.20
2019-03-01T10:43:30.452Z,9.40
2019-03-01T10:45:58.895Z,9.20
2019-03-01T10:48:27.523Z,9.20
2019-03-01T10:50:56.027Z,9.40
2019-03-01T10:53:24.483Z,9.40
2019-03-01T10:55:52.927Z,9.30
2019-03-01T10:58:21.380Z,9.30
2019-03-01T11:00:49.869Z,9.30
2019-03-01T11:03:18.324Z,9.10
2019-03-01T11:05:46.911Z,9.00
2019-03-01T11:08:15.336Z,9.10
2019-03-01T11:10:43.759Z,9.10
2019-03-01T11:13:14.929Z,9.20
2019-03-01T11:15:43.406Z,9.40
2019-03-01T11:18:11.904Z,9.50
2019-03-01T11:20:40.415Z,9.70
2019-03-01T11:23:08.838Z,9.90
2019-03-01T11:25:37.236Z,9.90
2019-03-01T11:28:05.813Z,9.60
2019-03-01T11:30:36.350Z,9.30
2019-03-01T11:33:04.858Z,9.20
2019-03-01T11:35:33.434Z,8.90
2019-03-01T11:38:02.747Z,8.70
2019-03-01T11:40:41.062Z,8.60
2019-03-01T11:43:09.506Z,8.60
2019-03-01T11:45:37.993Z,8.60
2019-03-01T11:48:06.593Z,8.80
2019-03-01T11:50:35.114Z,9.00
2019-03-01T11:53:03.570Z,9.40
2019-03-01T11:55:32.034Z,9.40
2019-03-01T11:58:01.933Z,9.60
2019-03-01T12:00:30.403Z,9.70
2019-03-01T12:02:58.843Z,9.90
2019-03-01T12:05:27.253Z,9.90
2019-03-01T12:07:55.695Z,9.80
2019-03-01T12:10:31.473Z,9.60
2019-03-01T12:13:01.868Z,9.20
2019-03-01T12:15:30.363Z,9.10
2019-03-01T12:17:58.767Z,9.00
2019-03-01T12:20:31.658Z,8.80
2019-03-01T12:23:01.857Z,8.80
2019-03-01T12:25:30.386Z,8.80
2019-03-01T12:27:58.877Z,8.90
2019-03-01T12:30:27.594Z,9.20
2019-03-01T12:32:56.063Z,9.40
2019-03-01T12:35:24.509Z,9.50
2019-03-01T12:37:53.005Z,9.40
2019-03-01T12:40:28.766Z,9.00
2019-03-01T12:42:57.289Z,8.70
2019-03-01T12:45:25.825Z,8.40
2019-03-01T12:47:54.380Z,8.20
2019-03-01T12:50:22.947Z,8.10
2019-03-01T12:52:51.420Z,8.00
2019-03-01T12:55:24.888Z,7.90
2019-03-01T12:57:53.314Z,7.90
2019-03-01T13:00:27.444Z,7.80
2019-03-01T13:02:55.930Z,7.70
2019-03-01T13:05:25.612Z,7.70
2019-03-01T13:07:54.637Z,7.70
2019-03-01T13:10:25.183Z,7.70
2019-03-01T13:12:54.675Z,7.70
2019-03-01T13:15:23.191Z,7.60
2019-03-01T13:17:51.650Z,7.70
2019-03-01T13:20:20.359Z,7.80
2019-03-01T13:22:48.830Z,8.00
2019-03-01T13:25:17.322Z,8.10
2019-03-01T13:27:48.885Z,8.20
2019-03-01T13:30:18.254Z,8.50
2019-03-01T13:32:46.760Z,8.80
2019-03-01T13:35:17.136Z,9.00
2019-03-01T13:37:45.651Z,9.20
2019-03-01T13:40:24.547Z,9.30
2019-03-01T13:42:52.061Z,9.20
2019-03-01T13:45:27.355Z,9.00
2019-03-01T13:47:55.808Z,8.90
2019-03-01T13:50:24.266Z,8.90
2019-03-01T13:52:52.709Z,8.90
2019-03-01T13:55:23.830Z,9.10
2019-03-01T13:57:51.645Z,9.20
2019-03-01T14:00:23.704Z,9.40
2019-03-01T14:02:52.262Z,9.30
2019-03-01T14:05:20.832Z,9.10
2019-03-01T14:07:55.138Z,8.90
2019-03-01T14:10:27.986Z,8.00
2019-03-01T14:12:56.479Z,7.40
2019-03-01T14:15:24.947Z,7.10
2019-03-01T14:17:53.388Z,6.90
2019-03-01T14:20:22.489Z,6.80
2019-03-01T14:22:50.971Z,6.80
2019-03-01T14:25:19.470Z,6.80
2019-03-01T14:27:48.137Z,6.90
2019-03-01T14:30:25.440Z,7.00
2019-03-01T14:32:57.031Z,7.10
2019-03-01T14:35:25.873Z,7.30
2019-03-01T14:37:55.194Z,7.40
2019-03-01T14:40:23.677Z,7.50
2019-03-01T14:42:52.337Z,7.50
2019-03-01T14:45:25.887Z,7.60
2019-03-01T14:47:55.126Z,7.60
2019-03-01T14:50:29.867Z,7.70
2019-03-01T14:52:58.884Z,7.70
2019-03-01T14:55:39.457Z,7.60
2019-03-01T14:58:13.495Z,7.50
2019-03-01T15:00:50.753Z,7.50
2019-03-01T15:03:32.328Z,7.30
2019-03-01T15:06:00.944Z,7.10
2019-03-01T15:08:29.398Z,6.90
2019-03-01T15:10:59.729Z,6.90
2019-03-01T15:13:31.438Z,6.90
2019-03-01T15:16:01.027Z,6.80
2019-03-01T15:18:28.976Z,6.90
2019-03-01T15:21:02.285Z,6.80
2019-03-01T15:23:28.967Z,6.80
2019-03-01T15:25:57.476Z,6.90
2019-03-01T15:28:25.929Z,6.90
2019-03-01T15:30:54.512Z,6.90
2019-03-01T15:33:22.935Z,6.90
2019-03-01T15:35:51.347Z,7.00
2019-03-01T15:38:19.859Z,7.00
2019-03-01T15:40:48.319Z,7.00
2019-03-01T15:43:16.759Z,7.00
2019-03-01T15:45:45.201Z,7.10
2019-03-01T15:48:13.623Z,7.10
2019-03-01T15:50:42.104Z,7.10
2019-03-01T15:53:10.519Z,7.10
2019-03-01T15:55:38.988Z,7.10
2019-03-01T15:58:07.415Z,7.20
2019-03-01T16:00:35.956Z,7.10
2019-03-01T16:03:05.057Z,7.10
2019-03-01T16:05:34.272Z,7.10
2019-03-01T16:08:05.476Z,7.10
2019-03-01T16:10:36.021Z,7.10
2019-03-01T16:13:03.968Z,6.90
2019-03-01T16:15:34.995Z,6.90
2019-03-01T16:18:02.633Z,6.80
2019-03-01T16:20:31.335Z,6.70
2019-03-01T16:23:00.968Z,6.70
2019-03-01T16:25:29.428Z,6.60
2019-03-01T16:27:57.921Z,6.60
2019-03-01T16:30:26.341Z,6.50
2019-03-01T16:32:54.862Z,6.40
2019-03-01T16:35:23.335Z,6.40
2019-03-01T16:37:53.541Z,6.30
2019-03-01T16:40:22.104Z,6.30
2019-03-01T16:42:54.401Z,6.20
2019-03-01T16:45:21.830Z,6.30
2019-03-01T16:47:50.898Z,6.40
2019-03-01T16:50:20.432Z,6.40
2019-03-01T16:52:48.973Z,6.50
2019-03-01T16:55:19.641Z,6.60
2019-03-01T16:57:48.592Z,6.60
2019-03-01T17:00:23.978Z,6.60
2019-03-01T17:03:01.594Z,6.70
2019-03-01T17:05:30.058Z,6.70
2019-03-01T17:07:59.789Z,6.60
2019-03-01T17:10:30.089Z,6.70
2019-03-01T17:12:59.019Z,6.70
2019-03-01T17:15:27.617Z,6.80
2019-03-01T17:17:56.106Z,6.80
2019-03-01T17:20:24.814Z,6.80
2019-03-01T17:22:53.362Z,6.80
2019-03-01T17:25:23.520Z,6.80
2019-03-01T17:27:52.074Z,6.70
2019-03-01T17:30:23.232Z,6.60
2019-03-01T17:32:51.743Z,6.60
2019-03-01T17:35:20.454Z,6.50
2019-03-01T17:37:48.923Z,6.50
2019-03-01T17:40:18.240Z,6.40
2019-03-01T17:42:46.869Z,6.40
2019-03-01T17:45:20.946Z,6.40
2019-03-01T17:47:50.612Z,6.30
2019-03-01T17:50:19.113Z,6.30
2019-03-01T17:52:47.567Z,6.20
2019-03-01T17:55:20.261Z,6.20
2019-03-01T17:57:50.158Z,6.20
2019-03-01T18:00:25.587Z,6.20
2019-03-01T18:02:55.175Z,6.10
2019-03-01T18:05:23.611Z,6.10
2019-03-01T18:07:52.133Z,6.10
2019-03-01T18:10:20.613Z,6.10
2019-03-01T18:12:49.192Z,6.10
2019-03-01T18:15:17.717Z,6.00
2019-03-01T18:17:46.195Z,6.00
2019-03-01T18:20:14.815Z,6.00
2019-03-01T18:22:43.483Z,6.00
2019-03-01T18:25:13.151Z,6.00
2019-03-01T18:27:41.629Z,6.00
2019-03-01T18:30:16.035Z,6.00
2019-03-01T18:32:45.152Z,6.00
2019-03-01T18:35:13.563Z,6.00
2019-03-01T18:37:42.148Z,5.90
2019-03-01T18:40:13.454Z,5.90
2019-03-01T18:42:42.659Z,5.90
2019-03-01T18:45:16.583Z,5.90
2019-03-01T18:47:45.380Z,5.90
2019-03-01T18:50:17.013Z,5.90
2019-03-01T18:52:45.665Z,5.90
2019-03-01T18:55:17.249Z,5.80
2019-03-01T18:57:44.508Z,5.90
2019-03-01T19:00:24.552Z,5.90
2019-03-01T19:02:53.143Z,5.90
2019-03-01T19:05:21.580Z,5.90
2019-03-01T19:07:50.135Z,5.90
2019-03-01T19:10:24.102Z,6.00
2019-03-01T19:12:51.242Z,5.90
2019-03-01T19:15:19.830Z,5.90
2019-03-01T19:17:48.325Z,5.90
2019-03-01T19:20:28.789Z,5.90
2019-03-01T19:22:57.781Z,5.90
2019-03-01T19:25:26.541Z,5.90
2019-03-01T19:27:55.211Z,5.90
2019-03-01T19:30:25.001Z,5.80
2019-03-01T19:32:53.506Z,5.80
2019-03-01T19:35:28.496Z,5.90
2019-03-01T19:37:52.243Z,5.80
2019-03-01T19:40:21.615Z,5.80
2019-03-01T19:42:50.123Z,5.80
2019-03-01T19:45:19.206Z,5.90
2019-03-01T19:47:47.833Z,5.80
2019-03-01T19:50:21.703Z,5.90
2019-03-01T19:52:50.533Z,5.80
2019-03-01T19:55:19.224Z,5.80
2019-03-01T19:57:47.850Z,5.70
2019-03-01T20:00:30.761Z,5.60
2019-03-01T20:03:01.053Z,5.50
2019-03-01T20:05:32.003Z,5.50
2019-03-01T20:08:01.086Z,5.50
2019-03-01T20:10:29.780Z,5.40
2019-03-01T20:12:58.298Z,5.40
2019-03-01T20:15:28.823Z,5.40
2019-03-01T20:17:57.426Z,5.40
2019-03-01T20:20:29.980Z,5.40
2019-03-01T20:22:57.822Z,5.40
2019-03-01T20:25:26.358Z,5.40
2019-03-01T20:27:54.883Z,5.40
2019-03-01T20:30:30.749Z,5.30
2019-03-01T20:33:04.931Z,5.30
2019-03-01T20:35:33.371Z,5.30
2019-03-01T20:38:04.386Z,5.30
2019-03-01T20:40:31.950Z,5.30
2019-03-01T20:43:06.938Z,5.30
2019-03-01T20:45:34.835Z,5.30
2019-03-01T20:48:03.539Z,5.20
2019-03-01T20:50:32.070Z,5.20
2019-03-01T20:53:01.008Z,5.20
2019-03-01T20:55:32.980Z,5.20
2019-03-01T20:58:03.218Z,5.20
2019-03-01T21:00:30.681Z,5.20
2019-03-01T21:03:00.517Z,5.20
2019-03-01T21:05:30.602Z,5.10
2019-03-01T21:07:59.229Z,5.10
2019-03-01T21:10:31.532Z,5.10
2019-03-01T21:13:01.844Z,5.10
2019-03-01T21:15:30.320Z,5.10
2019-03-01T21:18:01.137Z,5.10
2019-03-01T21:20:30.682Z,5.00
2019-03-01T21:22:59.157Z,5.00
2019-03-01T21:25:27.691Z,5.00
2019-03-01T21:27:57.581Z,5.10
2019-03-01T21:30:28.055Z,5.00
2019-03-01T21:32:56.627Z,5.00
2019-03-01T21:35:25.118Z,5.00
2019-03-01T21:37:53.694Z,5.00
2019-03-01T21:40:22.252Z,4.90
2019-03-01T21:42:52.681Z,5.00
2019-03-01T21:45:26.788Z,4.90
2019-03-01T21:47:55.276Z,4.90
2019-03-01T21:50:23.880Z,4.80
2019-03-01T21:52:52.366Z,4.70
2019-03-01T21:55:28.515Z,4.70
2019-03-01T21:57:58.119Z,4.70
2019-03-01T22:00:29.751Z,4.60
2019-03-01T22:02:58.167Z,4.60
2019-03-01T22:05:26.719Z,4.60
2019-03-01T22:07:55.198Z,4.60
2019-03-01T22:10:23.782Z,4.60
2019-03-01T22:12:52.291Z,4.60
2019-03-01T22:15:25.579Z,4.50
2019-03-01T22:17:54.175Z,4.50
2019-03-01T22:20:23.209Z,4.50
2019-03-01T22:22:51.679Z,4.50
2019-03-01T22:25:20.262Z,4.50
2019-03-01T22:27:48.758Z,4.50
2019-03-01T22:30:28.603Z,4.50
2019-03-01T22:32:57.090Z,4.40
2019-03-01T22:35:25.620Z,4.40
2019-03-01T22:37:54.141Z,4.30
2019-03-01T22:40:24.023Z,4.30
2019-03-01T22:42:52.888Z,4.30
2019-03-01T22:45:21.308Z,4.30
2019-03-01T22:47:49.769Z,4.30
2019-03-01T22:50:19.439Z,4.20
2019-03-01T22:52:48.008Z,4.20
2019-03-01T22:55:18.541Z,4.10
2019-03-01T22:57:47.094Z,4.00
2019-03-01T23:00:47.367Z,3.90
2019-03-01T23:03:18.782Z,3.80
2019-03-01T23:05:46.795Z,3.80
2019-03-01T23:08:15.451Z,3.80
2019-03-01T23:10:44.237Z,3.80
2019-03-01T23:13:12.669Z,3.70
2019-03-01T23:15:43.443Z,3.80
2019-03-01T23:18:11.954Z,3.80
2019-03-01T23:20:40.408Z,3.80
2019-03-01T23:23:08.836Z,3.80
2019-03-01T23:25:37.339Z,3.70
2019-03-01T23:28:08.122Z,3.70
2019-03-01T23:30:36.016Z,3.60
2019-03-01T23:33:04.618Z,3.50
2019-03-01T23:35:33.141Z,3.50
2019-03-01T23:38:01.609Z,3.50
2019-03-01T23:40:32.841Z,3.50
2019-03-01T23:43:00.579Z,3.50
2019-03-01T23:45:29.003Z,3.50
2019-03-01T23:47:57.486Z,3.30
2019-03-01T23:50:25.943Z,3.20
2019-03-01T23:52:54.937Z,3.10
2019-03-01T23:55:24.561Z,3.00
2019-03-01T23:57:53.346Z,2.90
